sensor_id;sensor_type;location;lat;lon;timestamp;pressure;altitude;pressure_sealevel;temperature;humidity
68329;BME280;55182;56.864;60.554;2023-04-07T00:01:31;77244.19;;;-143.60;49.54
68329;BME280;55182;56.864;60.554;2023-04-07T00:03:57;77252.22;;;-143.60;49.33
68329;BME280;55182;56.864;60.554;2023-04-07T00:06:22;77256.22;;;-143.60;49.38
68329;BME280;55182;56.864;60.554;2023-04-07T00:08:48;77240.16;;;-143.60;49.83
68329;BME280;55182;56.864;60.554;2023-04-07T00:11:13;77252.22;;;-143.60;50.02
68329;BME280;55182;56.864;60.554;2023-04-07T00:13:39;77252.22;;;-143.60;49.80
68329;BME280;55182;56.864;60.554;2023-04-07T00:16:04;77256.22;;;-143.60;49.90
68329;BME280;55182;56.864;60.554;2023-04-07T00:18:29;77264.28;;;-143.60;49.91
68329;BME280;55182;56.864;60.554;2023-04-07T00:20:55;77256.22;;;-143.60;49.81
68329;BME280;55182;56.864;60.554;2023-04-07T00:23:20;77258.25;;;-143.60;49.94
68329;BME280;55182;56.864;60.554;2023-04-07T00:25:46;77276.34;;;-143.60;49.69
68329;BME280;55182;56.864;60.554;2023-04-07T00:28:12;77268.28;;;-143.60;50.10
68329;BME280;55182;56.864;60.554;2023-04-07T00:30:37;77280.34;;;-143.60;50.23
68329;BME280;55182;56.864;60.554;2023-04-07T00:33:03;77280.34;;;-143.60;50.37
68329;BME280;55182;56.864;60.554;2023-04-07T00:35:28;77284.38;;;-143.60;50.68
68329;BME280;55182;56.864;60.554;2023-04-07T00:37:54;77300.44;;;-143.60;51.25
68329;BME280;55182;56.864;60.554;2023-04-07T00:40:20;77300.44;;;-143.60;51.00
68329;BME280;55182;56.864;60.554;2023-04-07T00:42:45;77308.50;;;-143.60;50.77
68329;BME280;55182;56.864;60.554;2023-04-07T00:45:11;77320.56;;;-143.60;50.78
68329;BME280;55182;56.864;60.554;2023-04-07T00:47:36;77318.53;;;-143.60;50.92
68329;BME280;55182;56.864;60.554;2023-04-07T00:50:03;77320.56;;;-143.60;50.82
68329;BME280;55182;56.864;60.554;2023-04-07T00:52:28;77334.63;;;-143.60;50.49
68329;BME280;55182;56.864;60.554;2023-04-07T00:54:54;77348.69;;;-143.60;50.57
68329;BME280;55182;56.864;60.554;2023-04-07T00:57:19;77348.69;;;-143.60;51.00
68329;BME280;55182;56.864;60.554;2023-04-07T00:59:45;77364.78;;;-143.60;50.39
68329;BME280;55182;56.864;60.554;2023-04-07T01:02:33;77366.78;;;-143.60;50.90
68329;BME280;55182;56.864;60.554;2023-04-07T01:05:03;77386.88;;;-143.60;50.90
68329;BME280;55182;56.864;60.554;2023-04-07T01:07:33;77386.88;;;-143.60;50.58
68329;BME280;55182;56.864;60.554;2023-04-07T01:10:07;77413.03;;;-143.60;50.94
68329;BME280;55182;56.864;60.554;2023-04-07T01:12:43;77421.06;;;-143.60;50.92
68329;BME280;55182;56.864;60.554;2023-04-07T01:15:13;77429.09;;;-143.60;50.55
68329;BME280;55182;56.864;60.554;2023-04-07T01:17:44;77441.16;;;-143.60;50.57
68329;BME280;55182;56.864;60.554;2023-04-07T01:20:13;77469.31;;;-143.60;51.01
68329;BME280;55182;56.864;60.554;2023-04-07T01:22:49;77487.41;;;-143.60;51.01
68329;BME280;55182;56.864;60.554;2023-04-07T01:30:37;77529.59;;;-143.60;51.10
68329;BME280;55182;56.864;60.554;2023-04-07T01:33:03;77525.59;;;-143.60;51.08
68329;BME280;55182;56.864;60.554;2023-04-07T01:35:29;77553.72;;;-143.60;51.25
68329;BME280;55182;56.864;60.554;2023-04-07T01:37:56;77569.81;;;-143.60;51.40
68329;BME280;55182;56.864;60.554;2023-04-07T01:40:23;77573.84;;;-143.60;51.54
68329;BME280;55182;56.864;60.554;2023-04-07T01:42:49;77597.97;;;-143.60;51.59
68329;BME280;55182;56.864;60.554;2023-04-07T01:45:15;77620.06;;;-143.60;51.25
68329;BME280;55182;56.864;60.554;2023-04-07T01:47:42;77644.19;;;-143.60;51.63
68329;BME280;55182;56.864;60.554;2023-04-07T01:50:08;77682.38;;;-143.60;52.10
68329;BME280;55182;56.864;60.554;2023-04-07T01:52:35;77704.50;;;-143.60;52.56
68329;BME280;55182;56.864;60.554;2023-04-07T01:55:04;77722.59;;;-143.60;53.12
68329;BME280;55182;56.864;60.554;2023-04-07T01:57:32;77734.66;;;-143.60;52.98
68329;BME280;55182;56.864;60.554;2023-04-07T02:00:03;77746.72;;;-143.60;53.24
68329;BME280;55182;56.864;60.554;2023-04-07T02:02:40;77766.81;;;-143.60;53.21
68329;BME280;55182;56.864;60.554;2023-04-07T02:05:08;77774.84;;;-143.60;52.74
68329;BME280;55182;56.864;60.554;2023-04-07T02:07:52;77780.88;;;-143.60;52.61
68329;BME280;55182;56.864;60.554;2023-04-07T02:10:21;77807.03;;;-143.60;52.65
68329;BME280;55182;56.864;60.554;2023-04-07T02:12:49;77817.06;;;-143.60;52.77
68329;BME280;55182;56.864;60.554;2023-04-07T02:15:17;77829.13;;;-143.60;53.17
68329;BME280;55182;56.864;60.554;2023-04-07T02:17:48;77843.22;;;-143.60;52.86
68329;BME280;55182;56.864;60.554;2023-04-07T02:20:15;77837.19;;;-143.60;52.50
68329;BME280;55182;56.864;60.554;2023-04-07T02:22:42;77867.34;;;-143.60;52.88
68329;BME280;55182;56.864;60.554;2023-04-07T02:25:20;77865.31;;;-143.60;52.50
68329;BME280;55182;56.864;60.554;2023-04-07T02:27:45;77875.38;;;-143.60;52.67
68329;BME280;55182;56.864;60.554;2023-04-07T02:30:11;77905.53;;;-143.60;52.72
68329;BME280;55182;56.864;60.554;2023-04-07T02:32:37;77909.56;;;-143.60;52.45
68329;BME280;55182;56.864;60.554;2023-04-07T02:35:02;77919.59;;;-143.60;52.90
68329;BME280;55182;56.864;60.554;2023-04-07T02:37:28;77929.66;;;-143.60;53.01
68329;BME280;55182;56.864;60.554;2023-04-07T02:39:53;77939.72;;;-143.60;53.44
68329;BME280;55182;56.864;60.554;2023-04-07T02:42:18;77947.75;;;-143.60;53.33
68329;BME280;55182;56.864;60.554;2023-04-07T02:44:44;77959.81;;;-143.60;53.28
68329;BME280;55182;56.864;60.554;2023-04-07T02:47:09;77953.78;;;-143.60;53.46
68329;BME280;55182;56.864;60.554;2023-04-07T02:49:35;77971.88;;;-143.60;53.20
68329;BME280;55182;56.864;60.554;2023-04-07T02:52:00;77971.88;;;-143.60;53.28
68329;BME280;55182;56.864;60.554;2023-04-07T02:54:26;77967.84;;;-143.60;53.23
68329;BME280;55182;56.864;60.554;2023-04-07T02:56:51;77969.88;;;-143.60;53.14
68329;BME280;55182;56.864;60.554;2023-04-07T02:59:16;77975.91;;;-143.60;53.17
68329;BME280;55182;56.864;60.554;2023-04-07T03:01:43;77979.91;;;-143.60;53.04
68329;BME280;55182;56.864;60.554;2023-04-07T03:04:08;77975.91;;;-143.60;53.15
68329;BME280;55182;56.864;60.554;2023-04-07T03:06:34;77987.97;;;-143.60;52.93
68329;BME280;55182;56.864;60.554;2023-04-07T03:09:05;77981.94;;;-143.60;52.96
68329;BME280;55182;56.864;60.554;2023-04-07T03:11:32;77979.91;;;-143.60;52.83
68329;BME280;55182;56.864;60.554;2023-04-07T03:13:59;77985.94;;;-143.60;53.12
68329;BME280;55182;56.864;60.554;2023-04-07T03:16:43;77987.97;;;-143.60;52.82
68329;BME280;55182;56.864;60.554;2023-04-07T03:19:11;77989.97;;;-143.60;52.85
68329;BME280;55182;56.864;60.554;2023-04-07T03:21:41;77987.97;;;-143.60;52.92
68329;BME280;55182;56.864;60.554;2023-04-07T03:24:07;78000.03;;;-143.60;52.18
68329;BME280;55182;56.864;60.554;2023-04-07T03:26:33;77998.00;;;-143.60;52.48
68329;BME280;55182;56.864;60.554;2023-04-07T03:29:00;77989.97;;;-143.60;52.26
68329;BME280;55182;56.864;60.554;2023-04-07T03:31:28;77998.00;;;-143.60;52.16
68329;BME280;55182;56.864;60.554;2023-04-07T03:33:53;77993.97;;;-143.60;51.69
68329;BME280;55182;56.864;60.554;2023-04-07T03:36:20;77993.97;;;-143.60;51.65
68329;BME280;55182;56.864;60.554;2023-04-07T03:38:46;77996.00;;;-143.60;51.27
68329;BME280;55182;56.864;60.554;2023-04-07T03:41:13;77987.97;;;-143.60;51.14
68329;BME280;55182;56.864;60.554;2023-04-07T03:43:39;77985.94;;;-143.60;50.92
68329;BME280;55182;56.864;60.554;2023-04-07T03:46:06;77981.94;;;-143.60;51.36
68329;BME280;55182;56.864;60.554;2023-04-07T03:48:31;77975.91;;;-143.60;50.77
68329;BME280;55182;56.864;60.554;2023-04-07T03:51:07;77979.91;;;-143.60;50.53
68329;BME280;55182;56.864;60.554;2023-04-07T03:53:33;77979.91;;;-143.60;50.37
68329;BME280;55182;56.864;60.554;2023-04-07T03:56:10;77983.94;;;-143.60;50.44
68329;BME280;55182;56.864;60.554;2023-04-07T03:58:41;77981.94;;;-143.60;50.05
68329;BME280;55182;56.864;60.554;2023-04-07T04:01:12;77998.00;;;-143.60;50.22
68329;BME280;55182;56.864;60.554;2023-04-07T04:03:40;78008.06;;;-143.60;50.37
68329;BME280;55182;56.864;60.554;2023-04-07T04:06:17;78000.03;;;-143.60;50.36
68329;BME280;55182;56.864;60.554;2023-04-07T04:08:43;78004.03;;;-143.60;49.77
68329;BME280;55182;56.864;60.554;2023-04-07T04:11:09;77996.00;;;-143.60;48.92
68329;BME280;55182;56.864;60.554;2023-04-07T04:13:42;77993.97;;;-143.60;48.59
68329;BME280;55182;56.864;60.554;2023-04-07T04:16:08;78008.06;;;-143.60;48.60
68329;BME280;55182;56.864;60.554;2023-04-07T04:18:36;78008.06;;;-143.60;48.65
68329;BME280;55182;56.864;60.554;2023-04-07T04:21:02;78004.03;;;-143.60;48.48
68329;BME280;55182;56.864;60.554;2023-04-07T04:23:29;78000.03;;;-143.60;48.38
68329;BME280;55182;56.864;60.554;2023-04-07T04:25:56;77996.00;;;-143.60;47.95
68329;BME280;55182;56.864;60.554;2023-04-07T04:28:22;77998.00;;;-143.60;47.33
68329;BME280;55182;56.864;60.554;2023-04-07T04:30:49;78002.03;;;-143.60;47.31
68329;BME280;55182;56.864;60.554;2023-04-07T04:33:14;77991.97;;;-143.60;47.27
68329;BME280;55182;56.864;60.554;2023-04-07T04:35:49;77996.00;;;-143.60;46.83
68329;BME280;55182;56.864;60.554;2023-04-07T04:38:18;78000.03;;;-143.60;46.72
68329;BME280;55182;56.864;60.554;2023-04-07T04:40:50;77979.91;;;-143.60;46.14
68329;BME280;55182;56.864;60.554;2023-04-07T04:43:21;77971.88;;;-143.60;45.75
68329;BME280;55182;56.864;60.554;2023-04-07T04:45:46;77971.88;;;-143.60;44.97
68329;BME280;55182;56.864;60.554;2023-04-07T04:48:14;77959.81;;;-143.60;44.95
68329;BME280;55182;56.864;60.554;2023-04-07T04:50:40;77967.84;;;-143.60;44.73
68329;BME280;55182;56.864;60.554;2023-04-07T04:53:10;77963.84;;;-143.60;44.75
68329;BME280;55182;56.864;60.554;2023-04-07T04:55:42;77965.84;;;-143.60;44.00
68329;BME280;55182;56.864;60.554;2023-04-07T04:58:08;77957.81;;;-143.60;43.49
68329;BME280;55182;56.864;60.554;2023-04-07T05:00:44;77959.81;;;-143.60;43.43
68329;BME280;55182;56.864;60.554;2023-04-07T05:03:10;77937.69;;;-143.60;43.72
68329;BME280;55182;56.864;60.554;2023-04-07T05:05:38;77939.72;;;-143.60;43.33
68329;BME280;55182;56.864;60.554;2023-04-07T05:08:04;77929.66;;;-143.60;43.02
68329;BME280;55182;56.864;60.554;2023-04-07T05:10:36;77907.53;;;-143.60;42.85
68329;BME280;55182;56.864;60.554;2023-04-07T05:13:02;77893.47;;;-143.60;43.25
68329;BME280;55182;56.864;60.554;2023-04-07T05:15:27;77887.44;;;-143.60;42.71
68329;BME280;55182;56.864;60.554;2023-04-07T05:17:53;77881.41;;;-143.60;42.52
68329;BME280;55182;56.864;60.554;2023-04-07T05:20:23;77891.47;;;-143.60;43.18
68329;BME280;55182;56.864;60.554;2023-04-07T05:22:49;77887.44;;;-143.60;42.41
68329;BME280;55182;56.864;60.554;2023-04-07T05:25:15;77875.38;;;-143.60;41.89
68329;BME280;55182;56.864;60.554;2023-04-07T05:27:43;77859.28;;;-143.60;41.60
68329;BME280;55182;56.864;60.554;2023-04-07T05:30:13;77849.25;;;-143.60;40.78
68329;BME280;55182;56.864;60.554;2023-04-07T05:32:39;77847.22;;;-143.60;40.70
68329;BME280;55182;56.864;60.554;2023-04-07T05:35:14;77839.19;;;-143.60;40.34
68329;BME280;55182;56.864;60.554;2023-04-07T05:37:47;77837.19;;;-143.60;39.56
68329;BME280;55182;56.864;60.554;2023-04-07T05:40:13;77839.19;;;-143.60;39.09
68329;BME280;55182;56.864;60.554;2023-04-07T05:42:39;77827.13;;;-143.60;38.74
68329;BME280;55182;56.864;60.554;2023-04-07T05:45:06;77819.09;;;-143.60;38.47
68329;BME280;55182;56.864;60.554;2023-04-07T05:47:33;77823.09;;;-143.60;37.97
68329;BME280;55182;56.864;60.554;2023-04-07T05:49:59;77817.06;;;-143.60;37.39
68329;BME280;55182;56.864;60.554;2023-04-07T05:52:25;77815.06;;;-143.60;37.73
68329;BME280;55182;56.864;60.554;2023-04-07T05:55:02;77776.88;;;-143.60;37.65
68329;BME280;55182;56.864;60.554;2023-04-07T05:57:29;77815.06;;;-143.60;37.44
68329;BME280;55182;56.864;60.554;2023-04-07T05:59:58;77803.00;;;-143.60;36.70
68329;BME280;55182;56.864;60.554;2023-04-07T06:02:24;77801.00;;;-143.60;36.50
68329;BME280;55182;56.864;60.554;2023-04-07T06:04:51;77794.97;;;-143.60;36.85
68329;BME280;55182;56.864;60.554;2023-04-07T06:07:18;77784.91;;;-143.60;36.72
68329;BME280;55182;56.864;60.554;2023-04-07T06:09:44;77784.91;;;-143.60;36.16
68329;BME280;55182;56.864;60.554;2023-04-07T06:12:10;77776.88;;;-143.60;35.53
68329;BME280;55182;56.864;60.554;2023-04-07T06:14:37;77772.84;;;-143.60;35.63
68329;BME280;55182;56.864;60.554;2023-04-07T06:17:03;77746.72;;;-143.60;34.49
68329;BME280;55182;56.864;60.554;2023-04-07T06:19:29;77750.72;;;-143.60;33.94
68329;BME280;55182;56.864;60.554;2023-04-07T06:21:55;77746.72;;;-143.60;32.86
68329;BME280;55182;56.864;60.554;2023-04-07T06:24:21;77738.69;;;-143.60;33.67
68329;BME280;55182;56.864;60.554;2023-04-07T06:26:46;77728.63;;;-143.60;33.56
68329;BME280;55182;56.864;60.554;2023-04-07T06:29:12;77738.69;;;-143.60;33.95
68329;BME280;55182;56.864;60.554;2023-04-07T06:31:38;77720.59;;;-143.60;33.32
68329;BME280;55182;56.864;60.554;2023-04-07T06:34:03;77720.59;;;-143.60;33.65
68329;BME280;55182;56.864;60.554;2023-04-07T06:36:29;77710.53;;;-143.60;33.61
68329;BME280;55182;56.864;60.554;2023-04-07T06:38:55;77710.53;;;-143.60;33.51
68329;BME280;55182;56.864;60.554;2023-04-07T06:41:20;77696.47;;;-143.60;32.74
68329;BME280;55182;56.864;60.554;2023-04-07T06:43:46;77682.38;;;-143.60;32.04
68329;BME280;55182;56.864;60.554;2023-04-07T06:46:12;77682.38;;;-143.60;31.51
68329;BME280;55182;56.864;60.554;2023-04-07T06:48:37;77668.31;;;-143.60;31.90
68329;BME280;55182;56.864;60.554;2023-04-07T06:51:03;77664.28;;;-143.60;31.79
68329;BME280;55182;56.864;60.554;2023-04-07T06:53:28;77650.22;;;-143.60;32.42
68329;BME280;55182;56.864;60.554;2023-04-07T06:56:03;77636.16;;;-143.60;32.31
68329;BME280;55182;56.864;60.554;2023-04-07T06:58:29;77626.09;;;-143.60;31.79
68329;BME280;55182;56.864;60.554;2023-04-07T07:00:54;77595.94;;;-143.60;31.00
68329;BME280;55182;56.864;60.554;2023-04-07T07:03:20;77597.97;;;-143.60;30.78
68329;BME280;55182;56.864;60.554;2023-04-07T07:05:46;77585.91;;;-143.60;30.63
68329;BME280;55182;56.864;60.554;2023-04-07T07:08:11;77577.84;;;-143.60;30.40
68329;BME280;55182;56.864;60.554;2023-04-07T07:10:37;77575.84;;;-143.60;30.75
68329;BME280;55182;56.864;60.554;2023-04-07T07:13:02;77561.78;;;-143.60;30.47
68329;BME280;55182;56.864;60.554;2023-04-07T07:15:28;77541.66;;;-143.60;30.33
68329;BME280;55182;56.864;60.554;2023-04-07T07:17:54;77535.63;;;-143.60;30.08
68329;BME280;55182;56.864;60.554;2023-04-07T07:20:19;77525.59;;;-143.60;29.93
68329;BME280;55182;56.864;60.554;2023-04-07T07:22:45;77507.50;;;-143.60;29.72
68329;BME280;55182;56.864;60.554;2023-04-07T07:25:10;77509.50;;;-143.60;29.63
68329;BME280;55182;56.864;60.554;2023-04-07T07:27:36;77465.28;;;-143.60;29.62
68329;BME280;55182;56.864;60.554;2023-04-07T07:30:01;77489.41;;;-143.60;29.27
68329;BME280;55182;56.864;60.554;2023-04-07T07:32:27;77499.47;;;-143.60;28.76
68329;BME280;55182;56.864;60.554;2023-04-07T07:34:52;77521.56;;;-143.60;29.39
68329;BME280;55182;56.864;60.554;2023-04-07T07:37:18;77505.50;;;-143.60;29.24
68329;BME280;55182;56.864;60.554;2023-04-07T07:39:43;77491.41;;;-143.60;28.85
68329;BME280;55182;56.864;60.554;2023-04-07T07:42:09;77481.38;;;-143.60;28.97
68329;BME280;55182;56.864;60.554;2023-04-07T07:44:35;77465.28;;;-143.60;28.98
68329;BME280;55182;56.864;60.554;2023-04-07T07:47:00;77465.28;;;-143.60;28.77
68329;BME280;55182;56.864;60.554;2023-04-07T07:49:26;77445.19;;;-143.60;28.67
68329;BME280;55182;56.864;60.554;2023-04-07T07:51:52;77429.09;;;-143.60;28.29
68329;BME280;55182;56.864;60.554;2023-04-07T07:54:17;77404.97;;;-143.60;28.47
68329;BME280;55182;56.864;60.554;2023-04-07T07:56:43;77394.94;;;-143.60;28.54
68329;BME280;55182;56.864;60.554;2023-04-07T07:59:08;77368.78;;;-143.60;28.52
68329;BME280;55182;56.864;60.554;2023-04-07T08:01:34;77360.75;;;-143.60;27.97
68329;BME280;55182;56.864;60.554;2023-04-07T08:03:59;77364.78;;;-143.60;27.79
68329;BME280;55182;56.864;60.554;2023-04-07T08:06:25;77356.75;;;-143.60;27.92
68329;BME280;55182;56.864;60.554;2023-04-07T08:08:50;77364.78;;;-143.60;27.51
68329;BME280;55182;56.864;60.554;2023-04-07T08:11:16;77364.78;;;-143.60;27.85
68329;BME280;55182;56.864;60.554;2023-04-07T08:13:41;77362.78;;;-143.60;27.45
68329;BME280;55182;56.864;60.554;2023-04-07T08:16:07;77358.75;;;-143.60;27.69
68329;BME280;55182;56.864;60.554;2023-04-07T08:18:32;77340.66;;;-143.60;27.27
68329;BME280;55182;56.864;60.554;2023-04-07T08:20:58;77336.63;;;-143.60;27.54
68329;BME280;55182;56.864;60.554;2023-04-07T08:23:24;77328.59;;;-143.60;27.75
68329;BME280;55182;56.864;60.554;2023-04-07T08:25:50;77328.59;;;-143.60;27.75
68329;BME280;55182;56.864;60.554;2023-04-07T08:28:15;77330.59;;;-143.60;27.28
68329;BME280;55182;56.864;60.554;2023-04-07T08:30:41;77328.59;;;-143.60;27.22
68329;BME280;55182;56.864;60.554;2023-04-07T08:33:07;77322.56;;;-143.60;27.48
68329;BME280;55182;56.864;60.554;2023-04-07T08:35:32;77312.50;;;-143.60;27.54
68329;BME280;55182;56.864;60.554;2023-04-07T08:37:58;77314.53;;;-143.60;26.85
68329;BME280;55182;56.864;60.554;2023-04-07T08:40:23;77312.50;;;-143.60;26.82
68329;BME280;55182;56.864;60.554;2023-04-07T08:42:49;77294.44;;;-143.60;26.98
68329;BME280;55182;56.864;60.554;2023-04-07T08:45:15;77272.31;;;-143.60;27.02
68329;BME280;55182;56.864;60.554;2023-04-07T08:47:41;77274.31;;;-143.60;26.32
68329;BME280;55182;56.864;60.554;2023-04-07T08:50:07;77256.22;;;-143.60;26.65
68329;BME280;55182;56.864;60.554;2023-04-07T08:52:43;77244.19;;;-143.60;26.35
68329;BME280;55182;56.864;60.554;2023-04-07T08:55:09;77228.09;;;-143.60;26.40
68329;BME280;55182;56.864;60.554;2023-04-07T08:57:35;77218.03;;;-143.60;25.74
68329;BME280;55182;56.864;60.554;2023-04-07T09:00:01;77216.03;;;-143.60;25.76
68329;BME280;55182;56.864;60.554;2023-04-07T09:02:26;77199.94;;;-143.60;26.11
68329;BME280;55182;56.864;60.554;2023-04-07T09:04:53;77179.84;;;-143.60;26.01
68329;BME280;55182;56.864;60.554;2023-04-07T09:07:19;77179.84;;;-143.60;26.08
68329;BME280;55182;56.864;60.554;2023-04-07T09:09:45;77169.81;;;-143.60;26.13
68329;BME280;55182;56.864;60.554;2023-04-07T09:12:10;77159.75;;;-143.60;26.14
68329;BME280;55182;56.864;60.554;2023-04-07T09:14:36;77149.69;;;-143.60;25.58
68329;BME280;55182;56.864;60.554;2023-04-07T09:17:03;77135.63;;;-143.60;26.18
68329;BME280;55182;56.864;60.554;2023-04-07T09:19:29;77123.56;;;-143.60;26.21
68329;BME280;55182;56.864;60.554;2023-04-07T09:21:54;77095.44;;;-143.60;26.01
68329;BME280;55182;56.864;60.554;2023-04-07T09:24:21;77089.41;;;-143.60;25.85
68329;BME280;55182;56.864;60.554;2023-04-07T09:26:46;77103.47;;;-143.60;25.19
68329;BME280;55182;56.864;60.554;2023-04-07T09:29:17;77097.44;;;-143.60;26.15
68329;BME280;55182;56.864;60.554;2023-04-07T09:31:46;77087.41;;;-143.60;25.04
68329;BME280;55182;56.864;60.554;2023-04-07T09:34:45;77071.31;;;-143.60;25.48
68329;BME280;55182;56.864;60.554;2023-04-07T09:39:49;77023.06;;;-143.60;24.29
68329;BME280;55182;56.864;60.554;2023-04-07T09:42:14;76982.88;;;-143.60;24.04
68329;BME280;55182;56.864;60.554;2023-04-07T09:44:40;76970.81;;;-143.60;23.86
68329;BME280;55182;56.864;60.554;2023-04-07T09:47:05;76950.72;;;-143.60;24.22
68329;BME280;55182;56.864;60.554;2023-04-07T09:49:30;76914.53;;;-143.60;23.78
68329;BME280;55182;56.864;60.554;2023-04-07T09:54:31;76858.25;;;-143.60;23.65
68329;BME280;55182;56.864;60.554;2023-04-07T09:56:57;76858.25;;;-143.60;23.67
68329;BME280;55182;56.864;60.554;2023-04-07T09:59:23;76928.63;;;-143.60;23.84
68329;BME280;55182;56.864;60.554;2023-04-07T10:01:49;76974.84;;;-143.60;23.94
68329;BME280;55182;56.864;60.554;2023-04-07T10:04:15;77015.03;;;-143.60;24.14
68329;BME280;55182;56.864;60.554;2023-04-07T10:06:41;77035.13;;;-143.60;24.77
68329;BME280;55182;56.864;60.554;2023-04-07T10:09:06;77055.22;;;-143.60;24.57
68329;BME280;55182;56.864;60.554;2023-04-07T10:11:32;77075.34;;;-143.60;24.48
68329;BME280;55182;56.864;60.554;2023-04-07T10:13:57;77097.44;;;-143.60;24.36
68329;BME280;55182;56.864;60.554;2023-04-07T10:16:23;77121.56;;;-143.60;24.39
68329;BME280;55182;56.864;60.554;2023-04-07T10:18:49;77135.63;;;-143.60;24.77
68329;BME280;55182;56.864;60.554;2023-04-07T10:21:14;77145.69;;;-143.60;24.56
68329;BME280;55182;56.864;60.554;2023-04-07T10:26:05;77175.84;;;-143.60;24.52
68329;BME280;55182;56.864;60.554;2023-04-07T10:28:31;77179.84;;;-143.60;24.44
68329;BME280;55182;56.864;60.554;2023-04-07T10:30:58;77187.91;;;-143.60;24.41
68329;BME280;55182;56.864;60.554;2023-04-07T10:36:09;77205.97;;;-143.60;24.23
68329;BME280;55182;56.864;60.554;2023-04-07T10:38:34;77203.97;;;-143.60;24.31
68329;BME280;55182;56.864;60.554;2023-04-07T10:40:59;77195.94;;;-143.60;24.37
68329;BME280;55182;56.864;60.554;2023-04-07T10:43:45;77205.97;;;-143.60;24.76
68329;BME280;55182;56.864;60.554;2023-04-07T10:46:10;77214.03;;;-143.60;24.75
68329;BME280;55182;56.864;60.554;2023-04-07T10:48:36;77205.97;;;-143.60;24.80
68329;BME280;55182;56.864;60.554;2023-04-07T10:53:29;77203.97;;;-143.60;24.39
68329;BME280;55182;56.864;60.554;2023-04-07T10:55:55;77199.94;;;-143.60;24.37
68329;BME280;55182;56.864;60.554;2023-04-07T10:58:27;77199.94;;;-143.60;24.47
68329;BME280;55182;56.864;60.554;2023-04-07T11:03:24;77218.03;;;-143.60;24.70
68329;BME280;55182;56.864;60.554;2023-04-07T11:05:49;77214.03;;;-143.60;25.44
68329;BME280;55182;56.864;60.554;2023-04-07T11:08:15;77199.94;;;-143.60;25.01
68329;BME280;55182;56.864;60.554;2023-04-07T11:10:56;77208.00;;;-143.60;24.94
68329;BME280;55182;56.864;60.554;2023-04-07T11:13:21;77203.97;;;-143.60;24.55
68329;BME280;55182;56.864;60.554;2023-04-07T11:15:47;77195.94;;;-143.60;25.06
68329;BME280;55182;56.864;60.554;2023-04-07T11:18:17;77199.94;;;-143.60;25.42
68329;BME280;55182;56.864;60.554;2023-04-07T11:20:44;77195.94;;;-143.60;25.06
68329;BME280;55182;56.864;60.554;2023-04-07T11:23:10;77191.91;;;-143.60;25.06
68329;BME280;55182;56.864;60.554;2023-04-07T11:25:35;77187.91;;;-143.60;24.69
68329;BME280;55182;56.864;60.554;2023-04-07T11:28:02;77175.84;;;-143.60;24.45
68329;BME280;55182;56.864;60.554;2023-04-07T11:30:28;77179.84;;;-143.60;24.59
68329;BME280;55182;56.864;60.554;2023-04-07T11:32:54;77177.84;;;-143.60;24.10
68329;BME280;55182;56.864;60.554;2023-04-07T11:35:20;77169.81;;;-143.60;23.96
68329;BME280;55182;56.864;60.554;2023-04-07T11:37:46;77183.88;;;-143.60;24.24
68329;BME280;55182;56.864;60.554;2023-04-07T11:40:12;77175.84;;;-143.60;24.20
68329;BME280;55182;56.864;60.554;2023-04-07T11:42:38;77179.84;;;-143.60;24.45
68329;BME280;55182;56.864;60.554;2023-04-07T11:45:04;77187.91;;;-143.60;24.78
68329;BME280;55182;56.864;60.554;2023-04-07T11:47:36;77183.88;;;-143.60;24.41
68329;BME280;55182;56.864;60.554;2023-04-07T11:50:05;77183.88;;;-143.60;24.56
68329;BME280;55182;56.864;60.554;2023-04-07T11:52:40;77179.84;;;-143.60;24.44
68329;BME280;55182;56.864;60.554;2023-04-07T11:55:07;77171.81;;;-143.60;23.70
68329;BME280;55182;56.864;60.554;2023-04-07T11:57:40;77155.72;;;-143.60;24.32
68329;BME280;55182;56.864;60.554;2023-04-07T12:00:06;77139.66;;;-143.60;23.48
68329;BME280;55182;56.864;60.554;2023-04-07T12:02:32;77127.59;;;-143.60;24.25
68329;BME280;55182;56.864;60.554;2023-04-07T12:04:58;77109.50;;;-143.60;24.16
68329;BME280;55182;56.864;60.554;2023-04-07T12:07:23;77087.41;;;-143.60;24.03
68329;BME280;55182;56.864;60.554;2023-04-07T12:09:49;77035.13;;;-143.60;24.07
68329;BME280;55182;56.864;60.554;2023-04-07T12:12:14;76890.41;;;-143.60;22.76
68329;BME280;55182;56.864;60.554;2023-04-07T12:14:49;76673.38;;;-143.60;22.29
68329;BME280;55182;56.864;60.554;2023-04-07T12:17:27;76488.47;;;-143.60;21.33
68329;BME280;55182;56.864;60.554;2023-04-07T12:19:53;76299.56;;;-143.60;21.36
68329;BME280;55182;56.864;60.554;2023-04-07T12:22:18;76189.03;;;-143.60;20.64
68329;BME280;55182;56.864;60.554;2023-04-07T12:24:44;76082.53;;;-143.60;19.89
68329;BME280;55182;56.864;60.554;2023-04-07T12:27:09;76004.19;;;-143.60;19.59
68329;BME280;55182;56.864;60.554;2023-04-07T12:29:35;75931.84;;;-143.60;19.09
68329;BME280;55182;56.864;60.554;2023-04-07T12:32:00;75966.00;;;-143.60;19.93
68329;BME280;55182;56.864;60.554;2023-04-07T12:34:26;75901.69;;;-143.60;19.30
68329;BME280;55182;56.864;60.554;2023-04-07T12:36:51;75873.56;;;-143.60;18.92
68329;BME280;55182;56.864;60.554;2023-04-07T12:39:17;75829.34;;;-143.60;18.73
68329;BME280;55182;56.864;60.554;2023-04-07T12:41:42;75813.28;;;-143.60;18.73
68329;BME280;55182;56.864;60.554;2023-04-07T12:44:08;75799.22;;;-143.60;18.46
68329;BME280;55182;56.864;60.554;2023-04-07T12:46:34;75775.09;;;-143.60;18.41
68329;BME280;55182;56.864;60.554;2023-04-07T12:48:59;75763.06;;;-143.60;18.23
68329;BME280;55182;56.864;60.554;2023-04-07T12:51:25;75736.94;;;-143.60;18.41